sensor_id;sensor_type;location;lat;lon;timestamp;P1;durP1;ratioP1;P2;durP2;ratioP2
38693;SDS011;24447;43.460;25.744;2022-11-15T00:01:57;35.00;;;12.93;;
38693;SDS011;24447;43.460;25.744;2022-11-15T00:04:23;33.95;;;14.50;;
38693;SDS011;24447;43.460;25.744;2022-11-15T00:06:49;27.02;;;11.85;;
38693;SDS011;24447;43.460;25.744;2022-11-15T00:09:15;29.52;;;12.10;;
38693;SDS011;24447;43.460;25.744;2022-11-15T00:11:41;31.38;;;13.02;;
38693;SDS011;24447;43.460;25.744;2022-11-15T00:14:06;31.13;;;11.68;;
38693;SDS011;24447;43.460;25.744;2022-11-15T00:16:32;31.20;;;12.25;;
38693;SDS011;24447;43.460;25.744;2022-11-15T00:18:58;30.40;;;12.20;;
38693;SDS011;24447;43.460;25.744;2022-11-15T00:21:24;32.10;;;12.27;;
38693;SDS011;24447;43.460;25.744;2022-11-15T00:23:50;43.10;;;13.77;;
38693;SDS011;24447;43.460;25.744;2022-11-15T00:26:16;30.70;;;11.07;;
38693;SDS011;24447;43.460;25.744;2022-11-15T00:28:43;27.70;;;10.38;;
38693;SDS011;24447;43.460;25.744;2022-11-15T00:31:11;31.23;;;10.90;;
38693;SDS011;24447;43.460;25.744;2022-11-15T00:33:38;30.42;;;10.18;;
38693;SDS011;24447;43.460;25.744;2022-11-15T00:36:07;34.42;;;12.07;;
38693;SDS011;24447;43.460;25.744;2022-11-15T00:38:36;22.42;;;9.02;;
38693;SDS011;24447;43.460;25.744;2022-11-15T00:41:03;30.52;;;11.07;;
38693;SDS011;24447;43.460;25.744;2022-11-15T00:43:30;25.60;;;11.10;;
38693;SDS011;24447;43.460;25.744;2022-11-15T00:45:56;36.38;;;11.50;;
38693;SDS011;24447;43.460;25.744;2022-11-15T00:48:22;30.33;;;10.88;;
38693;SDS011;24447;43.460;25.744;2022-11-15T00:50:48;22.73;;;10.05;;
38693;SDS011;24447;43.460;25.744;2022-11-15T00:53:14;22.50;;;9.13;;
38693;SDS011;24447;43.460;25.744;2022-11-15T00:55:40;32.35;;;10.02;;
38693;SDS011;24447;43.460;25.744;2022-11-15T00:58:06;29.67;;;11.95;;
38693;SDS011;24447;43.460;25.744;2022-11-15T01:00:32;26.77;;;9.93;;
38693;SDS011;24447;43.460;25.744;2022-11-15T01:02:59;25.17;;;10.75;;
38693;SDS011;24447;43.460;25.744;2022-11-15T01:05:26;27.67;;;9.25;;
38693;SDS011;24447;43.460;25.744;2022-11-15T01:07:53;24.63;;;10.63;;
38693;SDS011;24447;43.460;25.744;2022-11-15T01:10:20;29.35;;;10.93;;
38693;SDS011;24447;43.460;25.744;2022-11-15T01:12:47;29.95;;;12.43;;
38693;SDS011;24447;43.460;25.744;2022-11-15T01:15:13;30.02;;;10.75;;
38693;SDS011;24447;43.460;25.744;2022-11-15T01:17:38;26.02;;;9.95;;
38693;SDS011;24447;43.460;25.744;2022-11-15T01:20:05;25.05;;;9.38;;
38693;SDS011;24447;43.460;25.744;2022-11-15T01:22:31;26.13;;;9.50;;
38693;SDS011;24447;43.460;25.744;2022-11-15T01:24:57;25.25;;;10.30;;
38693;SDS011;24447;43.460;25.744;2022-11-15T01:27:23;26.20;;;10.07;;
38693;SDS011;24447;43.460;25.744;2022-11-15T01:29:49;27.48;;;8.95;;
38693;SDS011;24447;43.460;25.744;2022-11-15T01:32:15;21.80;;;8.75;;
38693;SDS011;24447;43.460;25.744;2022-11-15T01:34:41;29.83;;;10.95;;
38693;SDS011;24447;43.460;25.744;2022-11-15T01:37:07;25.55;;;9.82;;
38693;SDS011;24447;43.460;25.744;2022-11-15T01:39:33;28.13;;;10.27;;
38693;SDS011;24447;43.460;25.744;2022-11-15T01:41:58;25.90;;;10.05;;
38693;SDS011;24447;43.460;25.744;2022-11-15T01:46:57;26.77;;;9.90;;
38693;SDS011;24447;43.460;25.744;2022-11-15T01:49:25;29.42;;;9.35;;
38693;SDS011;24447;43.460;25.744;2022-11-15T01:51:53;29.38;;;9.68;;
38693;SDS011;24447;43.460;25.744;2022-11-15T01:54:19;24.58;;;9.68;;
38693;SDS011;24447;43.460;25.744;2022-11-15T01:56:53;24.33;;;10.43;;
38693;SDS011;24447;43.460;25.744;2022-11-15T01:59:21;27.88;;;10.35;;
38693;SDS011;24447;43.460;25.744;2022-11-15T02:01:47;26.35;;;10.25;;
38693;SDS011;24447;43.460;25.744;2022-11-15T02:04:17;26.80;;;8.98;;
38693;SDS011;24447;43.460;25.744;2022-11-15T02:06:46;30.50;;;10.07;;
38693;SDS011;24447;43.460;25.744;2022-11-15T02:09:12;21.13;;;9.05;;
38693;SDS011;24447;43.460;25.744;2022-11-15T02:11:38;23.33;;;8.32;;
38693;SDS011;24447;43.460;25.744;2022-11-15T02:14:04;27.70;;;10.10;;
38693;SDS011;24447;43.460;25.744;2022-11-15T02:16:35;28.80;;;8.43;;
38693;SDS011;24447;43.460;25.744;2022-11-15T02:36:12;19.88;;;7.40;;
38693;SDS011;24447;43.460;25.744;2022-11-15T02:42:02;22.05;;;6.60;;
38693;SDS011;24447;43.460;25.744;2022-11-15T02:44:26;22.80;;;9.25;;
38693;SDS011;24447;43.460;25.744;2022-11-15T02:46:55;34.17;;;8.48;;
38693;SDS011;24447;43.460;25.744;2022-11-15T02:49:39;27.77;;;9.32;;
38693;SDS011;24447;43.460;25.744;2022-11-15T02:52:07;20.77;;;8.40;;
38693;SDS011;24447;43.460;25.744;2022-11-15T02:54:33;25.48;;;9.85;;
38693;SDS011;24447;43.460;25.744;2022-11-15T02:57:04;19.05;;;7.97;;
38693;SDS011;24447;43.460;25.744;2022-11-15T03:08:36;26.42;;;8.00;;
38693;SDS011;24447;43.460;25.744;2022-11-15T03:11:28;27.58;;;8.02;;
38693;SDS011;24447;43.460;25.744;2022-11-15T03:14:09;24.73;;;8.30;;
38693;SDS011;24447;43.460;25.744;2022-11-15T03:21:59;25.92;;;8.98;;
38693;SDS011;24447;43.460;25.744;2022-11-15T03:24:26;24.55;;;8.65;;
38693;SDS011;24447;43.460;25.744;2022-11-15T03:26:54;23.42;;;8.20;;
38693;SDS011;24447;43.460;25.744;2022-11-15T03:29:22;23.08;;;9.25;;
38693;SDS011;24447;43.460;25.744;2022-11-15T03:31:51;23.13;;;10.20;;
38693;SDS011;24447;43.460;25.744;2022-11-15T03:37:08;27.38;;;10.23;;
38693;SDS011;24447;43.460;25.744;2022-11-15T03:39:36;24.27;;;10.13;;
38693;SDS011;24447;43.460;25.744;2022-11-15T03:42:15;24.25;;;8.48;;
38693;SDS011;24447;43.460;25.744;2022-11-15T03:47:25;37.00;;;10.20;;
38693;SDS011;24447;43.460;25.744;2022-11-15T03:49:53;25.40;;;9.25;;
38693;SDS011;24447;43.460;25.744;2022-11-15T03:52:23;21.30;;;9.30;;
38693;SDS011;24447;43.460;25.744;2022-11-15T03:54:50;24.45;;;8.90;;
38693;SDS011;24447;43.460;25.744;2022-11-15T03:57:18;24.15;;;8.68;;
38693;SDS011;24447;43.460;25.744;2022-11-15T03:59:44;21.15;;;8.43;;
38693;SDS011;24447;43.460;25.744;2022-11-15T04:02:11;21.80;;;7.28;;
38693;SDS011;24447;43.460;25.744;2022-11-15T04:04:37;26.70;;;10.38;;
38693;SDS011;24447;43.460;25.744;2022-11-15T04:07:03;21.92;;;7.90;;
38693;SDS011;24447;43.460;25.744;2022-11-15T04:09:29;27.05;;;9.60;;
38693;SDS011;24447;43.460;25.744;2022-11-15T04:11:55;23.60;;;9.20;;
38693;SDS011;24447;43.460;25.744;2022-11-15T04:14:21;28.92;;;9.40;;
38693;SDS011;24447;43.460;25.744;2022-11-15T04:16:47;22.73;;;9.93;;
38693;SDS011;24447;43.460;25.744;2022-11-15T04:19:12;24.98;;;8.02;;
38693;SDS011;24447;43.460;25.744;2022-11-15T04:21:57;23.15;;;8.68;;
38693;SDS011;24447;43.460;25.744;2022-11-15T04:24:49;23.83;;;7.82;;
38693;SDS011;24447;43.460;25.744;2022-11-15T04:27:15;24.42;;;9.05;;
38693;SDS011;24447;43.460;25.744;2022-11-15T04:29:41;23.13;;;9.52;;
38693;SDS011;24447;43.460;25.744;2022-11-15T04:32:07;25.13;;;8.82;;
38693;SDS011;24447;43.460;25.744;2022-11-15T04:34:33;24.95;;;9.88;;
38693;SDS011;24447;43.460;25.744;2022-11-15T04:37:00;27.00;;;8.85;;
38693;SDS011;24447;43.460;25.744;2022-11-15T04:39:38;29.65;;;8.82;;
38693;SDS011;24447;43.460;25.744;2022-11-15T04:42:07;28.17;;;8.07;;
38693;SDS011;24447;43.460;25.744;2022-11-15T04:44:34;26.40;;;7.85;;
38693;SDS011;24447;43.460;25.744;2022-11-15T04:47:00;29.05;;;9.15;;
38693;SDS011;24447;43.460;25.744;2022-11-15T04:49:26;21.00;;;8.52;;
38693;SDS011;24447;43.460;25.744;2022-11-15T04:51:52;28.38;;;8.32;;
38693;SDS011;24447;43.460;25.744;2022-11-15T04:54:18;21.25;;;8.73;;
38693;SDS011;24447;43.460;25.744;2022-11-15T04:56:44;21.10;;;7.78;;
38693;SDS011;24447;43.460;25.744;2022-11-15T04:59:10;26.25;;;9.18;;
38693;SDS011;24447;43.460;25.744;2022-11-15T05:01:36;27.98;;;8.32;;
38693;SDS011;24447;43.460;25.744;2022-11-15T05:04:02;23.25;;;7.47;;
38693;SDS011;24447;43.460;25.744;2022-11-15T05:06:47;23.00;;;7.55;;
38693;SDS011;24447;43.460;25.744;2022-11-15T05:09:17;18.88;;;7.28;;
38693;SDS011;24447;43.460;25.744;2022-11-15T05:11:43;25.83;;;9.23;;
38693;SDS011;24447;43.460;25.744;2022-11-15T05:14:09;22.08;;;8.27;;
38693;SDS011;24447;43.460;25.744;2022-11-15T05:16:36;23.52;;;8.30;;
38693;SDS011;24447;43.460;25.744;2022-11-15T05:19:02;24.75;;;10.63;;
38693;SDS011;24447;43.460;25.744;2022-11-15T05:21:28;27.95;;;10.80;;
38693;SDS011;24447;43.460;25.744;2022-11-15T05:23:54;29.05;;;11.80;;
38693;SDS011;24447;43.460;25.744;2022-11-15T05:26:20;24.75;;;10.27;;
38693;SDS011;24447;43.460;25.744;2022-11-15T05:28:46;30.60;;;10.88;;
38693;SDS011;24447;43.460;25.744;2022-11-15T05:31:15;30.02;;;12.30;;
38693;SDS011;24447;43.460;25.744;2022-11-15T05:33:42;35.13;;;12.93;;
38693;SDS011;24447;43.460;25.744;2022-11-15T05:39:04;27.52;;;10.63;;
38693;SDS011;24447;43.460;25.744;2022-11-15T05:41:38;26.15;;;10.05;;
38693;SDS011;24447;43.460;25.744;2022-11-15T05:44:07;23.75;;;8.48;;
38693;SDS011;24447;43.460;25.744;2022-11-15T05:46:35;23.08;;;9.13;;
38693;SDS011;24447;43.460;25.744;2022-11-15T05:49:02;27.02;;;8.57;;
38693;SDS011;24447;43.460;25.744;2022-11-15T05:51:30;27.25;;;11.02;;
38693;SDS011;24447;43.460;25.744;2022-11-15T05:53:56;20.05;;;8.52;;
38693;SDS011;24447;43.460;25.744;2022-11-15T05:56:24;24.20;;;9.88;;
38693;SDS011;24447;43.460;25.744;2022-11-15T05:58:51;25.08;;;9.30;;
38693;SDS011;24447;43.460;25.744;2022-11-15T06:01:19;24.83;;;9.38;;
38693;SDS011;24447;43.460;25.744;2022-11-15T06:03:44;26.92;;;9.13;;
38693;SDS011;24447;43.460;25.744;2022-11-15T06:06:10;28.67;;;12.23;;
38693;SDS011;24447;43.460;25.744;2022-11-15T06:08:36;75.63;;;39.75;;
38693;SDS011;24447;43.460;25.744;2022-11-15T06:11:03;69.50;;;39.40;;
38693;SDS011;24447;43.460;25.744;2022-11-15T06:13:32;46.38;;;16.88;;
38693;SDS011;24447;43.460;25.744;2022-11-15T06:15:59;33.83;;;11.35;;
38693;SDS011;24447;43.460;25.744;2022-11-15T06:18:25;23.45;;;8.77;;
38693;SDS011;24447;43.460;25.744;2022-11-15T06:20:51;24.85;;;11.15;;
38693;SDS011;24447;43.460;25.744;2022-11-15T06:23:17;25.48;;;8.13;;
38693;SDS011;24447;43.460;25.744;2022-11-15T06:25:43;25.27;;;8.23;;
38693;SDS011;24447;43.460;25.744;2022-11-15T06:28:09;24.75;;;8.93;;
38693;SDS011;24447;43.460;25.744;2022-11-15T06:30:35;23.63;;;7.82;;
38693;SDS011;24447;43.460;25.744;2022-11-15T06:33:01;24.42;;;8.88;;
38693;SDS011;24447;43.460;25.744;2022-11-15T06:35:29;22.83;;;9.10;;
38693;SDS011;24447;43.460;25.744;2022-11-15T06:37:55;20.63;;;7.40;;
38693;SDS011;24447;43.460;25.744;2022-11-15T06:40:22;18.85;;;7.60;;
38693;SDS011;24447;43.460;25.744;2022-11-15T06:42:47;23.00;;;7.50;;
38693;SDS011;24447;43.460;25.744;2022-11-15T06:45:13;21.20;;;7.10;;
38693;SDS011;24447;43.460;25.744;2022-11-15T06:47:44;18.52;;;7.45;;
38693;SDS011;24447;43.460;25.744;2022-11-15T06:50:11;21.65;;;8.07;;
38693;SDS011;24447;43.460;25.744;2022-11-15T06:52:37;23.15;;;7.30;;
38693;SDS011;24447;43.460;25.744;2022-11-15T06:55:03;18.20;;;6.20;;
38693;SDS011;24447;43.460;25.744;2022-11-15T06:57:29;19.73;;;7.45;;
38693;SDS011;24447;43.460;25.744;2022-11-15T06:59:55;18.70;;;7.05;;
38693;SDS011;24447;43.460;25.744;2022-11-15T07:02:21;21.92;;;7.90;;
38693;SDS011;24447;43.460;25.744;2022-11-15T07:04:47;21.00;;;7.28;;
38693;SDS011;24447;43.460;25.744;2022-11-15T07:07:13;18.50;;;5.90;;
38693;SDS011;24447;43.460;25.744;2022-11-15T07:09:39;19.83;;;6.70;;
38693;SDS011;24447;43.460;25.744;2022-11-15T07:12:05;21.60;;;7.18;;
38693;SDS011;24447;43.460;25.744;2022-11-15T07:14:31;22.15;;;7.45;;
38693;SDS011;24447;43.460;25.744;2022-11-15T07:16:56;17.48;;;7.00;;
38693;SDS011;24447;43.460;25.744;2022-11-15T07:19:23;20.27;;;7.35;;
38693;SDS011;24447;43.460;25.744;2022-11-15T07:21:49;22.08;;;7.07;;
38693;SDS011;24447;43.460;25.744;2022-11-15T07:24:15;21.35;;;6.85;;
38693;SDS011;24447;43.460;25.744;2022-11-15T07:26:41;18.27;;;6.93;;
38693;SDS011;24447;43.460;25.744;2022-11-15T07:29:06;19.13;;;6.53;;
38693;SDS011;24447;43.460;25.744;2022-11-15T07:31:32;21.40;;;7.32;;
38693;SDS011;24447;43.460;25.744;2022-11-15T07:33:58;19.63;;;8.00;;
38693;SDS011;24447;43.460;25.744;2022-11-15T07:36:24;17.92;;;7.10;;
38693;SDS011;24447;43.460;25.744;2022-11-15T07:38:50;18.27;;;7.38;;
38693;SDS011;24447;43.460;25.744;2022-11-15T07:41:16;23.60;;;8.23;;
38693;SDS011;24447;43.460;25.744;2022-11-15T07:43:42;23.38;;;6.93;;
38693;SDS011;24447;43.460;25.744;2022-11-15T07:46:08;21.00;;;8.63;;
38693;SDS011;24447;43.460;25.744;2022-11-15T07:48:35;18.88;;;7.00;;
38693;SDS011;24447;43.460;25.744;2022-11-15T07:51:02;20.63;;;8.15;;
38693;SDS011;24447;43.460;25.744;2022-11-15T07:53:28;16.65;;;6.28;;
38693;SDS011;24447;43.460;25.744;2022-11-15T07:55:54;17.45;;;6.97;;
38693;SDS011;24447;43.460;25.744;2022-11-15T07:58:19;20.13;;;7.70;;
38693;SDS011;24447;43.460;25.744;2022-11-15T08:00:45;16.80;;;7.22;;
38693;SDS011;24447;43.460;25.744;2022-11-15T08:03:12;17.48;;;7.50;;
38693;SDS011;24447;43.460;25.744;2022-11-15T08:05:41;23.42;;;8.52;;
38693;SDS011;24447;43.460;25.744;2022-11-15T08:08:08;19.63;;;8.10;;
38693;SDS011;24447;43.460;25.744;2022-11-15T08:10:36;19.38;;;7.18;;
38693;SDS011;24447;43.460;25.744;2022-11-15T08:13:07;20.88;;;7.97;;
38693;SDS011;24447;43.460;25.744;2022-11-15T08:15:34;24.98;;;8.60;;
38693;SDS011;24447;43.460;25.744;2022-11-15T08:18:02;22.20;;;9.52;;
38693;SDS011;24447;43.460;25.744;2022-11-15T08:20:32;20.77;;;8.80;;
38693;SDS011;24447;43.460;25.744;2022-11-15T08:22:59;20.88;;;10.00;;
38693;SDS011;24447;43.460;25.744;2022-11-15T08:25:27;20.77;;;7.03;;
38693;SDS011;24447;43.460;25.744;2022-11-15T08:27:55;20.00;;;6.68;;
38693;SDS011;24447;43.460;25.744;2022-11-15T08:30:22;16.05;;;6.88;;
38693;SDS011;24447;43.460;25.744;2022-11-15T08:32:49;25.63;;;8.05;;
38693;SDS011;24447;43.460;25.744;2022-11-15T08:35:16;22.27;;;9.05;;
38693;SDS011;24447;43.460;25.744;2022-11-15T08:37:42;20.15;;;7.75;;
38693;SDS011;24447;43.460;25.744;2022-11-15T08:40:08;26.75;;;11.15;;
38693;SDS011;24447;43.460;25.744;2022-11-15T08:42:34;27.73;;;9.35;;
38693;SDS011;24447;43.460;25.744;2022-11-15T08:45:01;19.25;;;7.03;;
38693;SDS011;24447;43.460;25.744;2022-11-15T08:47:28;20.05;;;6.65;;
38693;SDS011;24447;43.460;25.744;2022-11-15T08:49:54;16.50;;;6.55;;
38693;SDS011;24447;43.460;25.744;2022-11-15T08:52:20;21.63;;;8.40;;
38693;SDS011;24447;43.460;25.744;2022-11-15T08:54:46;22.23;;;9.75;;
38693;SDS011;24447;43.460;25.744;2022-11-15T08:57:12;19.73;;;8.18;;
38693;SDS011;24447;43.460;25.744;2022-11-15T08:59:38;17.77;;;6.20;;
38693;SDS011;24447;43.460;25.744;2022-11-15T09:02:04;21.45;;;8.40;;
38693;SDS011;24447;43.460;25.744;2022-11-15T09:04:30;26.27;;;10.40;;
38693;SDS011;24447;43.460;25.744;2022-11-15T09:06:56;20.92;;;7.85;;
38693;SDS011;24447;43.460;25.744;2022-11-15T09:09:22;21.38;;;8.35;;
38693;SDS011;24447;43.460;25.744;2022-11-15T09:11:48;22.75;;;8.88;;
38693;SDS011;24447;43.460;25.744;2022-11-15T09:14:14;17.38;;;6.97;;
38693;SDS011;24447;43.460;25.744;2022-11-15T09:16:40;18.30;;;5.95;;
38693;SDS011;24447;43.460;25.744;2022-11-15T09:19:06;21.25;;;7.95;;
38693;SDS011;24447;43.460;25.744;2022-11-15T09:21:33;18.63;;;7.57;;
38693;SDS011;24447;43.460;25.744;2022-11-15T09:23:59;16.63;;;6.82;;
38693;SDS011;24447;43.460;25.744;2022-11-15T09:26:25;19.55;;;7.03;;
38693;SDS011;24447;43.460;25.744;2022-11-15T09:28:51;20.58;;;7.20;;
38693;SDS011;24447;43.460;25.744;2022-11-15T09:31:17;21.63;;;8.38;;
38693;SDS011;24447;43.460;25.744;2022-11-15T09:33:43;20.67;;;8.00;;
38693;SDS011;24447;43.460;25.744;2022-11-15T09:36:10;18.05;;;6.97;;
38693;SDS011;24447;43.460;25.744;2022-11-15T09:38:36;16.13;;;7.55;;
38693;SDS011;24447;43.460;25.744;2022-11-15T09:41:13;23.70;;;8.70;;
38693;SDS011;24447;43.460;25.744;2022-11-15T09:48:53;19.65;;;7.78;;
38693;SDS011;24447;43.460;25.744;2022-11-15T09:51:33;18.67;;;8.13;;
38693;SDS011;24447;43.460;25.744;2022-11-15T09:56:38;19.67;;;6.60;;
38693;SDS011;24447;43.460;25.744;2022-11-15T10:04:38;30.15;;;8.38;;
38693;SDS011;24447;43.460;25.744;2022-11-15T10:07:15;17.45;;;6.80;;
38693;SDS011;24447;43.460;25.744;2022-11-15T10:12:10;23.45;;;8.90;;
38693;SDS011;24447;43.460;25.744;2022-11-15T10:14:38;20.15;;;8.10;;
38693;SDS011;24447;43.460;25.744;2022-11-15T10:22:30;26.42;;;9.90;;
38693;SDS011;24447;43.460;25.744;2022-11-15T10:27:34;20.90;;;8.95;;
38693;SDS011;24447;43.460;25.744;2022-11-15T10:30:00;23.73;;;10.80;;
38693;SDS011;24447;43.460;25.744;2022-11-15T10:32:26;21.77;;;8.20;;
38693;SDS011;24447;43.460;25.744;2022-11-15T10:34:52;23.02;;;8.90;;
38693;SDS011;24447;43.460;25.744;2022-11-15T10:37:28;26.27;;;8.95;;
38693;SDS011;24447;43.460;25.744;2022-11-15T10:42:30;18.83;;;7.28;;
38693;SDS011;24447;43.460;25.744;2022-11-15T10:44:56;18.67;;;8.18;;
38693;SDS011;24447;43.460;25.744;2022-11-15T10:47:29;22.27;;;7.47;;
38693;SDS011;24447;43.460;25.744;2022-11-15T10:50:05;21.17;;;8.38;;
38693;SDS011;24447;43.460;25.744;2022-11-15T10:52:34;20.77;;;7.80;;
38693;SDS011;24447;43.460;25.744;2022-11-15T10:55:02;18.85;;;7.32;;
38693;SDS011;24447;43.460;25.744;2022-11-15T10:57:36;25.38;;;10.93;;
38693;SDS011;24447;43.460;25.744;2022-11-15T11:00:05;25.80;;;8.20;;
38693;SDS011;24447;43.460;25.744;2022-11-15T11:10:36;27.27;;;12.13;;
38693;SDS011;24447;43.460;25.744;2022-11-15T11:13:14;32.90;;;14.88;;
38693;SDS011;24447;43.460;25.744;2022-11-15T11:15:47;31.88;;;14.50;;
38693;SDS011;24447;43.460;25.744;2022-11-15T11:27:36;26.48;;;11.02;;
38693;SDS011;24447;43.460;25.744;2022-11-15T11:30:28;31.70;;;11.82;;
38693;SDS011;24447;43.460;25.744;2022-11-15T11:35:50;24.95;;;12.05;;
38693;SDS011;24447;43.460;25.744;2022-11-15T11:44:03;26.75;;;10.68;;
38693;SDS011;24447;43.460;25.744;2022-11-15T11:52:31;27.23;;;10.52;;
38693;SDS011;24447;43.460;25.744;2022-11-15T11:55:51;27.92;;;10.75;;
38693;SDS011;24447;43.460;25.744;2022-11-15T12:00:51;20.45;;;8.15;;
38693;SDS011;24447;43.460;25.744;2022-11-15T12:11:24;22.35;;;7.63;;
38693;SDS011;24447;43.460;25.744;2022-11-15T12:13:59;23.05;;;6.78;;
38693;SDS011;24447;43.460;25.744;2022-11-15T12:16:28;25.23;;;8.95;;
38693;SDS011;24447;43.460;25.744;2022-11-15T12:18:56;18.30;;;7.63;;
38693;SDS011;24447;43.460;25.744;2022-11-15T12:26:57;18.63;;;6.95;;
38693;SDS011;24447;43.460;25.744;2022-11-15T12:29:32;23.65;;;8.85;;
38693;SDS011;24447;43.460;25.744;2022-11-15T12:31:59;30.38;;;10.88;;
38693;SDS011;24447;43.460;25.744;2022-11-15T12:36:56;24.40;;;9.95;;
38693;SDS011;24447;43.460;25.744;2022-11-15T12:40:03;21.08;;;7.97;;
38693;SDS011;24447;43.460;25.744;2022-11-15T12:44:56;18.80;;;7.50;;
38693;SDS011;24447;43.460;25.744;2022-11-15T12:47:24;17.17;;;6.57;;
38693;SDS011;24447;43.460;25.744;2022-11-15T12:49:51;25.45;;;10.40;;
38693;SDS011;24447;43.460;25.744;2022-11-15T12:52:17;18.02;;;7.80;;
38693;SDS011;24447;43.460;25.744;2022-11-15T12:59:55;20.20;;;7.95;;
38693;SDS011;24447;43.460;25.744;2022-11-15T13:02:39;19.30;;;7.18;;
38693;SDS011;24447;43.460;25.744;2022-11-15T13:25:42;24.33;;;8.35;;
38693;SDS011;24447;43.460;25.744;2022-11-15T13:36:01;22.02;;;8.60;;
38693;SDS011;24447;43.460;25.744;2022-11-15T13:38:35;17.75;;;7.03;;
38693;SDS011;24447;43.460;25.744;2022-11-15T13:41:20;22.33;;;8.77;;
38693;SDS011;24447;43.460;25.744;2022-11-15T13:43:51;20.85;;;7.68;;
38693;SDS011;24447;43.460;25.744;2022-11-15T13:46:22;21.83;;;9.70;;
38693;SDS011;24447;43.460;25.744;2022-11-15T13:48:53;23.67;;;8.55;;
38693;SDS011;24447;43.460;25.744;2022-11-15T13:54:20;30.15;;;11.43;;
38693;SDS011;24447;43.460;25.744;2022-11-15T13:59:51;29.40;;;11.48;;
38693;SDS011;24447;43.460;25.744;2022-11-15T14:02:19;25.85;;;10.95;;
38693;SDS011;24447;43.460;25.744;2022-11-15T14:04:56;18.80;;;8.07;;
38693;SDS011;24447;43.460;25.744;2022-11-15T14:07:26;31.80;;;10.95;;
38693;SDS011;24447;43.460;25.744;2022-11-15T14:09:53;43.50;;;18.58;;
38693;SDS011;24447;43.460;25.744;2022-11-15T14:12:31;81.25;;;32.00;;
38693;SDS011;24447;43.460;25.744;2022-11-15T14:14:59;39.40;;;15.45;;
38693;SDS011;24447;43.460;25.744;2022-11-15T14:19:54;28.20;;;11.73;;
38693;SDS011;24447;43.460;25.744;2022-11-15T14:22:27;22.10;;;8.68;;
38693;SDS011;24447;43.460;25.744;2022-11-15T14:27:41;21.52;;;7.43;;
38693;SDS011;24447;43.460;25.744;2022-11-15T14:30:17;22.15;;;8.65;;
38693;SDS011;24447;43.460;25.744;2022-11-15T14:32:50;21.63;;;7.28;;
38693;SDS011;24447;43.460;25.744;2022-11-15T14:35:20;20.00;;;7.72;;
38693;SDS011;24447;43.460;25.744;2022-11-15T14:37:46;20.83;;;8.35;;
38693;SDS011;24447;43.460;25.744;2022-11-15T14:40:13;18.70;;;7.85;;
38693;SDS011;24447;43.460;25.744;2022-11-15T14:42:41;22.55;;;7.80;;
38693;SDS011;24447;43.460;25.744;2022-11-15T14:45:10;23.15;;;7.93;;
38693;SDS011;24447;43.460;25.744;2022-11-15T14:47:41;21.95;;;6.93;;
38693;SDS011;24447;43.460;25.744;2022-11-15T14:50:25;14.82;;;6.25;;
38693;SDS011;24447;43.460;25.744;2022-11-15T14:52:52;19.48;;;6.80;;
38693;SDS011;24447;43.460;25.744;2022-11-15T14:55:20;21.50;;;7.60;;
38693;SDS011;24447;43.460;25.744;2022-11-15T14:57:48;20.50;;;7.20;;
38693;SDS011;24447;43.460;25.744;2022-11-15T15:00:14;18.20;;;6.97;;
38693;SDS011;24447;43.460;25.744;2022-11-15T15:02:41;17.52;;;6.32;;
38693;SDS011;24447;43.460;25.744;2022-11-15T15:05:16;17.50;;;6.10;;
38693;SDS011;24447;43.460;25.744;2022-11-15T15:07:49;16.52;;;6.97;;
38693;SDS011;24447;43.460;25.744;2022-11-15T15:10:19;21.20;;;7.18;;
38693;SDS011;24447;43.460;25.744;2022-11-15T15:12:45;16.52;;;7.68;;
38693;SDS011;24447;43.460;25.744;2022-11-15T15:15:12;28.50;;;11.98;;
38693;SDS011;24447;43.460;25.744;2022-11-15T15:17:43;36.20;;;14.70;;
38693;SDS011;24447;43.460;25.744;2022-11-15T15:20:09;29.83;;;13.35;;
38693;SDS011;24447;43.460;25.744;2022-11-15T15:22:36;37.67;;;14.95;;
38693;SDS011;24447;43.460;25.744;2022-11-15T15:25:03;28.02;;;12.07;;
38693;SDS011;24447;43.460;25.744;2022-11-15T15:27:55;33.10;;;12.95;;
38693;SDS011;24447;43.460;25.744;2022-11-15T15:30:24;32.40;;;10.90;;
38693;SDS011;24447;43.460;25.744;2022-11-15T15:32:53;27.55;;;9.32;;
38693;SDS011;24447;43.460;25.744;2022-11-15T15:35:19;21.95;;;8.60;;
38693;SDS011;24447;43.460;25.744;2022-11-15T15:37:46;33.83;;;11.27;;
38693;SDS011;24447;43.460;25.744;2022-11-15T15:40:14;24.15;;;8.38;;
38693;SDS011;24447;43.460;25.744;2022-11-15T15:42:42;23.77;;;9.38;;
38693;SDS011;24447;43.460;25.744;2022-11-15T15:45:08;32.72;;;11.15;;
38693;SDS011;24447;43.460;25.744;2022-11-15T15:47:34;28.20;;;10.02;;
38693;SDS011;24447;43.460;25.744;2022-11-15T15:50:01;17.30;;;7.30;;
38693;SDS011;24447;43.460;25.744;2022-11-15T15:52:27;19.90;;;8.02;;
38693;SDS011;24447;43.460;25.744;2022-11-15T15:54:53;23.55;;;7.97;;
38693;SDS011;24447;43.460;25.744;2022-11-15T15:57:19;24.33;;;9.43;;
38693;SDS011;24447;43.460;25.744;2022-11-15T15:59:44;27.90;;;11.43;;
38693;SDS011;24447;43.460;25.744;2022-11-15T16:02:13;30.95;;;12.80;;
38693;SDS011;24447;43.460;25.744;2022-11-15T16:04:39;30.08;;;13.05;;
38693;SDS011;24447;43.460;25.744;2022-11-15T16:07:05;22.55;;;8.60;;
38693;SDS011;24447;43.460;25.744;2022-11-15T16:09:33;20.10;;;8.38;;
38693;SDS011;24447;43.460;25.744;2022-11-15T16:12:17;16.95;;;6.80;;
38693;SDS011;24447;43.460;25.744;2022-11-15T16:14:43;19.30;;;7.57;;
38693;SDS011;24447;43.460;25.744;2022-11-15T16:17:11;20.52;;;7.60;;
38693;SDS011;24447;43.460;25.744;2022-11-15T16:19:42;18.83;;;7.78;;
38693;SDS011;24447;43.460;25.744;2022-11-15T16:22:08;16.80;;;7.18;;
38693;SDS011;24447;43.460;25.744;2022-11-15T16:24:34;22.90;;;8.80;;
38693;SDS011;24447;43.460;25.744;2022-11-15T16:27:00;33.08;;;12.07;;
38693;SDS011;24447;43.460;25.744;2022-11-15T16:29:26;21.02;;;7.90;;
38693;SDS011;24447;43.460;25.744;2022-11-15T16:31:53;19.65;;;7.82;;
38693;SDS011;24447;43.460;25.744;2022-11-15T16:34:19;20.58;;;7.93;;
38693;SDS011;24447;43.460;25.744;2022-11-15T16:36:45;18.80;;;8.10;;
38693;SDS011;24447;43.460;25.744;2022-11-15T16:39:11;20.92;;;7.50;;
38693;SDS011;24447;43.460;25.744;2022-11-15T16:41:43;17.48;;;6.80;;
38693;SDS011;24447;43.460;25.744;2022-11-15T16:44:12;17.15;;;6.97;;
38693;SDS011;24447;43.460;25.744;2022-11-15T16:46:40;16.88;;;7.45;;
38693;SDS011;24447;43.460;25.744;2022-11-15T16:49:13;15.27;;;6.65;;
38693;SDS011;24447;43.460;25.744;2022-11-15T16:51:40;24.80;;;7.35;;
38693;SDS011;24447;43.460;25.744;2022-11-15T16:54:09;18.70;;;7.20;;
38693;SDS011;24447;43.460;25.744;2022-11-15T16:56:34;17.92;;;7.20;;
38693;SDS011;24447;43.460;25.744;2022-11-15T16:59:00;16.55;;;7.00;;
38693;SDS011;24447;43.460;25.744;2022-11-15T17:01:28;16.23;;;6.18;;
38693;SDS011;24447;43.460;25.744;2022-11-15T17:03:55;15.65;;;5.65;;
38693;SDS011;24447;43.460;25.744;2022-11-15T17:06:21;24.35;;;8.60;;
38693;SDS011;24447;43.460;25.744;2022-11-15T17:08:48;28.13;;;11.93;;
38693;SDS011;24447;43.460;25.744;2022-11-15T17:11:15;23.52;;;9.20;;
38693;SDS011;24447;43.460;25.744;2022-11-15T17:13:42;25.05;;;9.23;;
38693;SDS011;24447;43.460;25.744;2022-11-15T17:16:09;25.08;;;10.82;;